createdAt,value
2023-01-06T00:20:44.152Z,8.83
2023-01-06T00:34:33.011Z,8.88
2023-01-06T00:53:07.162Z,9.22
2023-01-06T01:00:39.463Z,9.40
2023-01-06T01:08:16.524Z,9.54
2023-01-06T01:12:08.996Z,9.23
2023-01-06T01:16:00.278Z,9.27
2023-01-06T01:23:24.921Z,9.17
2023-01-06T01:27:39.750Z,9.50
2023-01-06T01:31:31.665Z,9.51
2023-01-06T01:38:11.612Z,9.02
2023-01-06T01:41:58.994Z,8.97
2023-01-06T01:45:57.663Z,9.00
2023-01-06T01:49:51.047Z,8.89
2023-01-06T01:53:34.306Z,8.85
2023-01-06T02:04:03.057Z,8.82
2023-01-06T02:07:16.250Z,8.97
2023-01-06T02:10:58.498Z,8.98
2023-01-06T02:14:27.662Z,9.14
2023-01-06T02:30:51.341Z,9.09
2023-01-06T02:38:22.941Z,9.11
2023-01-06T02:42:21.299Z,8.96
2023-01-06T02:45:32.550Z,9.05
2023-01-06T02:49:21.475Z,8.90
2023-01-06T02:59:21.414Z,8.91
2023-01-06T03:02:15.869Z,8.97
2023-01-06T03:05:08.791Z,8.98
2023-01-06T03:08:01.360Z,9.02
2023-01-06T03:10:59.859Z,8.97
2023-01-06T03:14:32.240Z,8.96
2023-01-06T03:17:29.657Z,8.98
2023-01-06T03:20:27.194Z,8.92
2023-01-06T03:23:22.529Z,8.96
2023-01-06T03:26:48.871Z,8.97
2023-01-06T03:29:44.332Z,8.93
2023-01-06T03:33:26.833Z,8.94
2023-01-06T03:36:42.072Z,8.86
2023-01-06T03:40:23.576Z,8.83
2023-01-06T03:43:31.767Z,8.84
2023-01-06T03:46:43.721Z,8.82
2023-01-06T03:50:20.927Z,8.79
2023-01-06T03:53:42.109Z,8.78
2023-01-06T03:57:18.729Z,8.78
2023-01-06T04:07:37.872Z,8.99
2023-01-06T04:11:13.058Z,9.15
2023-01-06T04:14:14.969Z,9.20
2023-01-06T04:17:11.825Z,9.20
2023-01-06T04:20:28.913Z,9.30
2023-01-06T04:23:18.028Z,9.24
2023-01-06T04:26:40.618Z,9.29
2023-01-06T04:30:07.375Z,9.23
2023-01-06T04:33:01.718Z,9.30
2023-01-06T04:36:21.415Z,9.30
2023-01-06T04:39:59.077Z,9.30
2023-01-06T04:44:09.913Z,9.32
2023-01-06T04:47:58.301Z,9.21
2023-01-06T04:51:24.542Z,9.19
2023-01-06T05:07:02.077Z,9.04
2023-01-06T05:16:55.572Z,9.00
2023-01-06T05:19:55.248Z,8.92
2023-01-06T05:23:42.211Z,9.03
2023-01-06T05:26:39.552Z,8.99
2023-01-06T05:29:39.351Z,8.98
2023-01-06T05:33:00.076Z,8.98
2023-01-06T05:37:16.342Z,9.04
2023-01-06T05:40:20.627Z,8.98
2023-01-06T05:44:12.322Z,9.04
2023-01-06T05:52:28.830Z,9.05
2023-01-06T06:00:00.802Z,8.93
2023-01-06T06:20:54.820Z,8.97
2023-01-06T06:25:01.940Z,8.98
2023-01-06T08:29:37.837Z,9.12
2023-01-06T08:40:00.150Z,9.12
2023-01-06T08:44:53.744Z,9.17
2023-01-06T09:00:30.551Z,9.25
2023-01-06T09:18:12.980Z,9.38
2023-01-06T09:25:20.301Z,9.47
2023-01-06T09:29:12.237Z,9.58
2023-01-06T09:32:54.117Z,9.53
2023-01-06T09:36:17.493Z,9.43
2023-01-06T09:39:51.540Z,9.49
2023-01-06T09:47:50.969Z,9.46
2023-01-06T09:52:13.088Z,9.38
2023-01-06T09:56:00.291Z,9.44
2023-01-06T10:03:31.862Z,9.47
2023-01-06T10:11:59.089Z,9.64
2023-01-06T10:16:00.524Z,9.70
2023-01-06T10:19:03.861Z,9.62
2023-01-06T10:26:54.288Z,9.54
2023-01-06T10:33:59.506Z,9.83
2023-01-06T10:38:06.915Z,9.76
2023-01-06T10:41:54.160Z,9.90
2023-01-06T10:49:16.467Z,9.81
2023-01-06T10:59:37.775Z,10.04
2023-01-06T11:07:07.846Z,10.03
2023-01-06T11:10:57.405Z,10.24
2023-01-06T11:14:54.168Z,10.04
2023-01-06T11:18:36.768Z,10.07
2023-01-06T11:22:41.982Z,10.06
2023-01-06T11:29:23.170Z,10.15
2023-01-06T11:33:19.308Z,10.19
2023-01-06T11:36:40.700Z,10.16
2023-01-06T11:40:21.864Z,10.24
2023-01-06T12:07:57.626Z,10.25
2023-01-06T12:12:25.177Z,10.46
2023-01-06T12:24:50.400Z,10.79
2023-01-06T12:37:19.301Z,10.92
2023-01-06T12:49:47.456Z,10.90
2023-01-06T12:58:57.654Z,11.46
2023-01-06T13:03:30.538Z,11.53
2023-01-06T13:10:27.861Z,11.13
2023-01-06T13:14:29.906Z,10.86
2023-01-06T13:18:56.968Z,10.84
2023-01-06T13:22:05.919Z,10.68
2023-01-06T13:29:00.030Z,10.64
2023-01-06T13:45:16.249Z,10.67
2023-01-06T13:48:09.586Z,10.74
2023-01-06T13:51:17.784Z,10.69
2023-01-06T13:54:52.396Z,10.54
2023-01-06T13:57:52.687Z,10.61
2023-01-06T14:01:15.269Z,10.58
2023-01-06T14:04:51.113Z,10.57
2023-01-06T14:08:33.224Z,10.55
2023-01-06T14:11:45.112Z,10.43
2023-01-06T14:18:14.216Z,10.56
2023-01-06T14:21:54.832Z,10.51
2023-01-06T14:25:29.055Z,10.70
2023-01-06T14:31:53.424Z,10.59
2023-01-06T14:39:04.724Z,10.43
2023-01-06T14:42:40.481Z,10.28
2023-01-06T14:46:13.604Z,10.20
2023-01-06T14:50:42.093Z,10.10
2023-01-06T14:53:53.475Z,10.17
2023-01-06T14:57:00.995Z,10.10
2023-01-06T15:00:27.526Z,10.15
2023-01-06T15:03:36.787Z,10.28
2023-01-06T15:06:36.305Z,10.24
2023-01-06T15:09:38.990Z,10.29
2023-01-06T15:12:52.648Z,10.30
2023-01-06T15:16:17.310Z,10.18
2023-01-06T15:19:28.428Z,10.08
2023-01-06T15:22:38.821Z,10.08
2023-01-06T15:25:40.846Z,9.99
2023-01-06T15:28:46.189Z,9.97
2023-01-06T15:31:51.030Z,9.97
2023-01-06T15:34:51.803Z,10.07
2023-01-06T15:40:53.825Z,9.95
2023-01-06T15:44:06.570Z,9.96
2023-01-06T15:50:44.997Z,9.81
2023-01-06T15:53:46.269Z,9.84
2023-01-06T15:59:43.943Z,9.87
2023-01-06T16:02:39.728Z,9.84
2023-01-06T16:15:57.243Z,9.82
2023-01-06T16:19:06.336Z,9.84
2023-01-06T16:22:02.503Z,9.78
2023-01-06T16:28:40.481Z,9.78
2023-01-06T16:36:04.429Z,9.72
2023-01-06T16:39:10.552Z,9.71
2023-01-06T16:44:43.325Z,9.76
2023-01-06T16:47:34.837Z,9.70
2023-01-06T16:53:54.439Z,9.71
2023-01-06T16:56:48.599Z,9.69
2023-01-06T17:04:03.617Z,9.75
2023-01-06T17:06:59.930Z,9.65
2023-01-06T17:09:51.139Z,9.63
2023-01-06T17:13:42.205Z,9.55
2023-01-06T17:17:03.654Z,9.51
2023-01-06T17:20:02.856Z,9.44
2023-01-06T17:22:59.229Z,9.51
2023-01-06T17:29:20.761Z,9.40
2023-01-06T17:32:50.756Z,9.40
2023-01-06T17:40:07.631Z,9.38
2023-01-06T17:43:24.977Z,9.30
2023-01-06T17:50:30.340Z,9.28
2023-01-06T17:54:31.756Z,9.23
2023-01-06T17:57:22.753Z,9.24
2023-01-06T18:00:54.891Z,9.30
2023-01-06T18:04:24.595Z,9.33
2023-01-06T18:08:00.878Z,9.32
2023-01-06T18:11:47.144Z,9.33
2023-01-06T18:14:43.967Z,9.30
2023-01-06T18:18:10.955Z,9.38
2023-01-06T18:21:40.212Z,9.32
2023-01-06T18:27:48.579Z,9.34
2023-01-06T18:30:28.623Z,9.28
2023-01-06T18:46:01.315Z,9.28
2023-01-06T18:50:23.950Z,9.31
2023-01-06T19:14:00.126Z,9.22
2023-01-06T19:18:06.886Z,9.22
2023-01-06T19:33:34.254Z,9.18
2023-01-06T20:24:13.901Z,9.24
2023-01-06T22:41:27.210Z,9.10
2023-01-06T22:44:15.541Z,8.99
2023-01-06T22:47:06.664Z,9.06
2023-01-06T22:50:04.034Z,9.04
2023-01-06T22:52:54.885Z,9.04
2023-01-06T22:55:46.218Z,9.05
2023-01-06T22:58:38.180Z,9.03
2023-01-06T23:01:26.226Z,9.05
2023-01-06T23:04:15.087Z,8.96
2023-01-06T23:07:04.657Z,9.15
2023-01-06T23:09:58.749Z,8.90
2023-01-06T23:12:50.018Z,8.70
2023-01-06T23:15:42.532Z,8.71
2023-01-06T23:18:32.953Z,8.80
2023-01-06T23:21:26.035Z,8.90
2023-01-06T23:24:15.050Z,8.96
2023-01-06T23:27:03.903Z,8.97
2023-01-06T23:29:51.875Z,9.01
2023-01-06T23:32:40.292Z,9.11
2023-01-06T23:35:28.471Z,9.03
2023-01-06T23:38:17.446Z,8.98
2023-01-06T23:41:13.533Z,9.07
2023-01-06T23:44:05.830Z,9.03
2023-01-06T23:46:57.485Z,9.03
2023-01-06T23:49:54.886Z,8.94
2023-01-06T23:52:43.324Z,9.08
2023-01-06T23:55:34.621Z,9.06
2023-01-06T23:58:23.222Z,9.13
